Diamond Center, Iowa
Current Conditions -  °F | °C
As of 7:55 AM on Monday 24 Nov 2014 (Local Time) from KCKP Reporting Station
Overcast Overcast  
Wind Chill: -14°   Ceiling: 2200
Heat Index: -6°   Visibility: 10mi
Dew Point: -9°   Wind: 17mph
Humidity: 77%   Direction: 320°NW
Pressure: 29.58"   Gusts: 28mph
Location:  42.6502°N, 95.4454°W
Report Text: KCKP 241355Z AUTO 32015G24KT 10SM OVC022 M06/M09 A2958 RMK AO2 T10581093
Loading
Personal Weather Stations






























Interactive Weather Map New forecast layout! Learn more

10-Day Weather Forecast

Advertisements
Track Severe Weather on mobile